Time;durP1;ratioP1;P1;durP2;ratioP2;P2;SDS_P1;SDS_P2;PMS_P1;PMS_P2;Temp;Humidity;BMP_temperature;BMP_pressure;BME280_temperature;BME280_humidity;BME280_pressure;Samples;Min_cycle;Max_cycle;Signal;HPM_P1;HPM_P2
2024/03/10 00:01:19;;;;;;;2.05;0.95;;;;;;;-0.44;66.55;100761.34;5126010;28;20020;-67
2024/03/10 00:03:45;;;;;;;0.50;0.50;;;;;;;-0.57;67.04;100764.16;5126150;28;20020;-68
2024/03/10 00:06:10;;;;;;;0.50;0.50;;;;;;;-0.58;66.53;100758.22;5107952;28;20517;-67
2024/03/10 00:08:35;;;;;;;0.50;0.50;;;;;;;-0.43;66.80;100764.78;5125784;28;20068;-67
2024/03/10 00:11:01;;;;;;;0.73;0.73;;;;;;;-0.60;67.09;100758.94;5107571;28;20020;-66
2024/03/10 00:13:26;;;;;;;0.60;0.60;;;;;;;-0.32;66.03;100760.97;5125996;28;20031;-66
2024/03/10 00:15:51;;;;;;;0.50;0.50;;;;;;;-0.46;66.63;100792.72;5125972;28;20092;-67
2024/03/10 00:18:17;;;;;;;0.60;0.60;;;;;;;-0.43;66.27;100777.53;5126085;28;20020;-65
2024/03/10 00:20:44;;;;;;;0.70;0.70;;;;;;;-0.43;66.45;100775.81;5125828;28;20026;-67
2024/03/10 00:23:10;;;;;;;0.80;0.80;;;;;;;-0.55;66.73;100767.66;5107393;28;20034;-67
2024/03/10 00:25:35;;;;;;;0.60;0.60;;;;;;;-0.36;65.88;100748.91;5126007;28;20016;-67
2024/03/10 00:28:00;;;;;;;0.50;0.50;;;;;;;-0.42;66.22;100761.41;5125749;28;20454;-67
2024/03/10 00:30:26;;;;;;;0.50;0.50;;;;;;;-0.61;66.59;100752.09;5125868;28;20027;-67
2024/03/10 00:32:51;;;;;;;0.50;0.50;;;;;;;-0.44;66.48;100748.59;5125901;28;20133;-65
2024/03/10 00:35:16;;;;;;;0.50;0.50;;;;;;;-0.47;66.23;100753.56;5125323;28;20433;-66
2024/03/10 00:37:42;;;;;;;0.50;0.50;;;;;;;-0.48;66.46;100753.50;5125713;28;20031;-67
2024/03/10 00:40:07;;;;;;;0.50;0.50;;;;;;;-0.59;66.74;100746.25;5125708;28;20028;-67
2024/03/10 00:42:33;;;;;;;0.40;0.40;;;;;;;-0.54;66.80;100757.53;5125571;28;20031;-66
2024/03/10 00:44:59;;;;;;;0.50;0.50;;;;;;;-0.39;66.20;100752.22;5125647;28;20037;-67
2024/03/10 00:47:24;;;;;;;0.50;0.50;;;;;;;-0.38;66.03;100755.59;5125427;28;20068;-67
2024/03/10 00:49:50;;;;;;;0.80;0.70;;;;;;;-0.44;65.92;100755.34;5125402;28;20069;-67
2024/03/10 00:52:15;;;;;;;0.50;0.50;;;;;;;-0.44;66.10;100751.13;5123731;28;20031;-66
2024/03/10 00:54:41;;;;;;;0.70;0.70;;;;;;;-0.47;66.27;100765.44;5125305;28;20028;-67
2024/03/10 00:57:06;;;;;;;0.50;0.50;;;;;;;-0.41;66.03;100751.25;5125277;28;20026;-67
2024/03/10 00:59:31;;;;;;;0.50;0.50;;;;;;;-0.48;66.20;100750.94;5125268;28;20026;-67
2024/03/10 01:01:58;;;;;;;0.98;0.98;;;;;;;-0.51;66.24;100751.66;5125226;28;20024;-66
2024/03/10 01:04:23;;;;;;;1.05;1.02;;;;;;;-0.39;65.80;100754.75;5125287;28;20391;-67
2024/03/10 01:06:49;;;;;;;0.60;0.60;;;;;;;-0.40;65.91;100782.75;5125164;28;20091;-66
2024/03/10 01:09:18;;;;;;;0.60;0.60;;;;;;;-0.08;64.86;100755.13;5123716;28;20056;-66
2024/03/10 01:11:45;;;;;;;0.50;0.50;;;;;;;-0.47;65.56;100743.34;5123979;28;20102;-67
2024/03/10 01:14:11;;;;;;;0.60;0.60;;;;;;;-0.53;66.12;100759.25;5125195;28;20357;-67
2024/03/10 01:16:37;;;;;;;0.60;0.60;;;;;;;-0.42;66.09;100761.41;5125181;28;20046;-67
2024/03/10 01:19:02;;;;;;;0.70;0.70;;;;;;;-0.37;65.40;100754.81;5125619;28;20030;-67
2024/03/10 01:21:27;;;;;;;1.45;1.35;;;;;;;-0.17;64.65;100742.00;5124982;28;20051;-66
2024/03/10 01:23:53;;;;;;;0.60;0.60;;;;;;;-0.40;65.15;100736.84;5125228;28;20020;-67
2024/03/10 01:26:19;;;;;;;0.50;0.50;;;;;;;-0.44;65.41;100748.59;5125248;28;20072;-66
2024/03/10 01:28:44;;;;;;;0.77;0.70;;;;;;;-0.55;65.88;100743.03;5125148;28;20046;-67
2024/03/10 01:31:10;;;;;;;0.60;0.60;;;;;;;-0.55;65.77;100727.72;5125093;28;20398;-66
2024/03/10 01:33:39;;;;;;;0.50;0.50;;;;;;;-0.48;65.71;100728.88;5124870;28;20036;-66
2024/03/10 01:36:06;;;;;;;4.80;4.32;;;;;;;-0.17;64.37;100742.00;5124748;28;20493;-67
2024/03/10 01:38:31;;;;;;;0.85;0.60;;;;;;;-0.53;65.31;100733.75;5125016;28;20437;-67
2024/03/10 01:40:57;;;;;;;0.60;0.60;;;;;;;-0.08;64.37;100727.06;5124932;28;20020;-66
2024/03/10 01:43:23;;;;;;;0.60;0.60;;;;;;;-0.31;64.38;100731.22;5124839;28;20049;-66
2024/03/10 01:45:53;;;;;;;0.50;0.50;;;;;;;-0.60;65.37;100739.41;5124616;28;20012;-66
2024/03/10 01:48:19;;;;;;;0.60;0.60;;;;;;;-0.60;65.71;100729.19;5124996;28;20020;-66
2024/03/10 01:50:45;;;;;;;0.60;0.60;;;;;;;-0.44;65.32;100735.81;5124764;28;20046;-67
2024/03/10 01:53:10;;;;;;;0.60;0.60;;;;;;;-0.61;66.02;100732.56;5124781;28;20031;-66
2024/03/10 01:55:37;;;;;;;0.60;0.60;;;;;;;-0.58;66.00;100729.28;5106222;28;20028;-67
2024/03/10 01:58:03;;;;;;;4.50;0.98;;;;;;;-0.55;66.21;100721.75;5125038;28;20024;-66
2024/03/10 02:00:28;;;;;;;0.50;0.50;;;;;;;-0.68;66.43;100723.78;5124808;28;20045;-67
2024/03/10 02:02:57;;;;;;;0.50;0.50;;;;;;;-0.63;66.42;100744.38;5124566;28;20019;-67
2024/03/10 02:05:25;;;;;;;0.60;0.60;;;;;;;-0.61;66.11;100737.66;5126543;28;20019;-67
2024/03/10 02:07:51;;;;;;;0.50;0.50;;;;;;;-0.48;65.88;100715.22;5128307;28;20043;-67
2024/03/10 02:10:17;;;;;;;0.70;0.70;;;;;;;-0.56;65.87;100720.00;5128342;28;20065;-67
2024/03/10 02:12:42;;;;;;;0.50;0.50;;;;;;;-0.66;65.72;100685.59;5128438;28;20023;-67
2024/03/10 02:15:08;;;;;;;0.50;0.50;;;;;;;-0.66;65.98;100716.19;5128267;28;20050;-68
2024/03/10 02:17:36;;;;;;;0.70;0.70;;;;;;;-1.02;65.68;100667.09;5128110;28;20031;-66
2024/03/10 02:20:04;;;;;;;0.60;0.60;;;;;;;-0.75;66.16;100704.78;5126523;28;20479;-67
2024/03/10 02:22:30;;;;;;;0.50;0.50;;;;;;;-0.61;65.79;100717.28;5128534;28;20024;-66
2024/03/10 02:24:59;;;;;;;0.60;0.60;;;;;;;-0.79;65.88;100702.94;5128163;28;20024;-67
2024/03/10 02:27:26;;;;;;;1.58;0.73;;;;;;;-0.73;65.83;100704.84;5109781;28;20058;-67
2024/03/10 02:48:59;;;;;;;0.60;0.60;;;;;;;-0.82;66.51;100712.13;5127844;28;20035;-68
2024/03/10 02:51:26;;;;;;;0.95;0.95;;;;;;;-0.89;66.81;100690.56;5127683;28;20383;-68
2024/03/10 02:53:52;;;;;;;0.60;0.60;;;;;;;-0.83;66.83;100693.38;5126465;28;20024;-67
2024/03/10 02:56:22;;;;;;;0.50;0.50;;;;;;;-0.78;66.60;100691.91;5109199;28;20031;-68
2024/03/10 02:58:48;;;;;;;0.70;0.70;;;;;;;-0.82;66.82;100689.16;5127525;28;20079;-66
2024/03/10 03:01:16;;;;;;;0.50;0.50;;;;;;;-0.83;67.10;100679.78;5127524;28;20027;-69
2024/03/10 03:03:41;;;;;;;0.50;0.50;;;;;;;-0.83;66.92;100689.97;5127524;28;20023;-66
2024/03/10 03:06:07;;;;;;;0.70;0.60;;;;;;;-0.81;66.95;100676.47;5127288;28;20431;-68
2024/03/10 03:08:32;;;;;;;0.60;0.60;;;;;;;-0.73;66.92;100689.56;5127367;28;20040;-68
2024/03/10 03:10:57;;;;;;;0.60;0.60;;;;;;;-0.87;67.32;100688.97;5127205;28;20043;-67
2024/03/10 03:13:23;;;;;;;0.60;0.60;;;;;;;-0.81;67.35;100698.53;5127210;28;20049;-68
2024/03/10 03:15:48;;;;;;;0.80;0.80;;;;;;;-0.65;66.80;100690.75;5108729;28;20055;-69
2024/03/10 03:18:14;;;;;;;0.50;0.50;;;;;;;-0.67;66.57;100691.50;5127149;28;20019;-69
2024/03/10 03:20:39;;;;;;;0.60;0.60;;;;;;;-0.75;66.88;100697.13;5126631;28;20015;-67
2024/03/10 03:23:04;;;;;;;0.50;0.50;;;;;;;-0.81;67.32;100689.22;5108410;28;20487;-68
2024/03/10 03:25:33;;;;;;;0.70;0.70;;;;;;;-0.79;67.30;100699.50;5126929;28;20075;-68
2024/03/10 03:27:58;;;;;;;0.60;0.60;;;;;;;-0.80;67.25;100685.00;5126886;28;20035;-68
2024/03/10 03:30:24;;;;;;;0.60;0.60;;;;;;;-0.73;66.91;100694.66;5126720;28;20022;-68
2024/03/10 03:32:49;;;;;;;5.57;0.80;;;;;;;-0.76;67.04;100704.72;5127002;28;20019;-68
2024/03/10 03:35:18;;;;;;;0.50;0.50;;;;;;;-0.66;66.31;100685.59;5125207;28;20027;-67
2024/03/10 03:37:46;;;;;;;0.80;0.80;;;;;;;-0.72;66.63;100703.19;5108471;28;20024;-68
2024/03/10 03:40:16;;;;;;;0.60;0.60;;;;;;;-0.64;66.22;100700.13;5126689;28;20031;-67
2024/03/10 03:42:41;;;;;;;0.50;0.50;;;;;;;-0.82;67.00;100692.59;5108548;28;20024;-68
2024/03/10 03:45:08;;;;;;;0.50;0.50;;;;;;;-0.77;66.61;100692.78;5124713;28;20061;-68
2024/03/10 03:47:34;;;;;;;0.50;0.50;;;;;;;-0.86;66.95;100684.75;5125208;28;20038;-68
2024/03/10 03:49:59;;;;;;;0.50;0.50;;;;;;;-0.84;66.86;100693.31;5126516;28;20036;-67
2024/03/10 03:52:25;;;;;;;0.63;0.63;;;;;;;-0.75;66.79;100686.94;5126730;28;20027;-67
2024/03/10 03:54:53;;;;;;;1.27;0.60;;;;;;;-0.89;66.92;100680.38;5126344;28;20020;-68
2024/03/10 03:57:20;;;;;;;0.50;0.50;;;;;;;-0.93;67.16;100691.25;5126601;28;20041;-68
2024/03/10 03:59:46;;;;;;;0.60;0.60;;;;;;;-0.89;67.03;100694.00;5126278;28;20091;-69
2024/03/10 04:02:11;;;;;;;0.60;0.60;;;;;;;-0.87;67.15;100709.38;5126247;28;20027;-68
2024/03/10 04:04:37;;;;;;;0.75;0.75;;;;;;;-0.54;65.65;100686.09;5126483;28;20023;-69
2024/03/10 04:07:04;;;;;;;0.68;0.63;;;;;;;-0.75;66.23;100693.72;5124741;28;20015;-68
2024/03/10 04:09:29;;;;;;;0.70;0.70;;;;;;;-0.83;66.88;100675.53;5124811;28;20047;-69
2024/03/10 04:11:55;;;;;;;0.60;0.60;;;;;;;-0.71;66.50;100695.59;5126053;28;20063;-68
2024/03/10 04:14:20;;;;;;;0.90;0.90;;;;;;;-0.90;66.60;100691.41;5126086;28;20020;-66
2024/03/10 04:16:45;;;;;;;0.50;0.50;;;;;;;-0.86;67.17;100690.69;5126059;28;20023;-67
2024/03/10 04:19:11;;;;;;;0.50;0.50;;;;;;;-0.91;67.31;100679.47;5125951;28;20392;-69
2024/03/10 04:21:37;;;;;;;0.50;0.50;;;;;;;-0.93;67.29;100678.50;5125752;28;20027;-68
2024/03/10 04:24:07;;;;;;;0.50;0.50;;;;;;;-0.92;67.28;100680.25;5125953;28;20042;-68
2024/03/10 04:26:33;;;;;;;0.60;0.60;;;;;;;-0.88;67.09;100692.34;5126083;28;20075;-68
2024/03/10 04:28:59;;;;;;;0.85;0.85;;;;;;;-0.84;67.20;100693.31;5125350;28;20402;-68
2024/03/10 04:31:24;;;;;;;0.50;0.50;;;;;;;-0.82;67.08;100700.25;5125604;28;20027;-68
2024/03/10 04:33:50;;;;;;;0.40;0.40;;;;;;;-0.89;67.06;100695.69;5125857;28;20054;-67
2024/03/10 04:36:15;;;;;;;0.60;0.60;;;;;;;-0.95;67.06;100682.66;5125693;28;20016;-68
2024/03/10 04:38:43;;;;;;;0.50;0.50;;;;;;;-0.77;66.91;100696.19;5107511;28;20020;-67
2024/03/10 04:41:11;;;;;;;0.60;0.60;;;;;;;-0.79;66.92;100709.69;5125676;28;20048;-67
2024/03/10 04:43:38;;;;;;;0.50;0.50;;;;;;;-0.78;66.84;100683.38;5125653;28;20043;-67
2024/03/10 04:46:04;;;;;;;1.38;1.08;;;;;;;-0.89;66.90;100683.81;5125499;28;20046;-67
2024/03/10 04:48:31;;;;;;;0.50;0.50;;;;;;;-0.81;67.21;100693.44;5124168;28;20067;-67
2024/03/10 04:50:56;;;;;;;0.50;0.50;;;;;;;-0.86;67.26;100695.81;5125526;28;20047;-68
2024/03/10 04:53:21;;;;;;;0.50;0.50;;;;;;;-0.86;67.24;100693.25;5125524;28;20020;-68
2024/03/10 04:55:47;;;;;;;0.60;0.60;;;;;;;-0.67;66.51;100701.72;5125337;28;20028;-68
2024/03/10 04:58:15;;;;;;;0.50;0.50;;;;;;;-0.75;66.88;100709.88;5125536;28;20024;-68
2024/03/10 05:00:41;;;;;;;0.70;0.70;;;;;;;-0.76;66.86;100697.97;5125144;28;20087;-68
2024/03/10 05:03:06;;;;;;;0.43;0.43;;;;;;;-0.83;67.18;100706.13;5107064;28;20097;-68
2024/03/10 05:05:32;;;;;;;0.50;0.50;;;;;;;-0.65;66.49;100707.72;5125411;28;20380;-68
2024/03/10 05:07:57;;;;;;;0.52;0.52;;;;;;;-0.64;66.85;100719.69;5125027;28;20499;-67
2024/03/10 05:10:23;;;;;;;0.50;0.50;;;;;;;-0.68;66.87;100710.16;5106981;28;20099;-66
2024/03/10 05:12:48;;;;;;;0.70;0.70;;;;;;;-0.76;67.08;100718.34;5125233;28;20475;-66
2024/03/10 05:15:17;;;;;;;1.45;1.35;;;;;;;-0.79;67.21;100713.13;5125327;28;20051;-66
2024/03/10 05:17:43;;;;;;;0.60;0.60;;;;;;;-0.67;66.84;100701.72;5125296;28;20027;-67
2024/03/10 05:20:12;;;;;;;0.80;0.80;;;;;;;-0.69;66.90;100709.28;5125128;28;20030;-67
2024/03/10 05:22:39;;;;;;;0.50;0.50;;;;;;;-0.80;67.16;100711.34;5106896;28;20035;-67
2024/03/10 05:25:05;;;;;;;0.60;0.60;;;;;;;-0.76;67.15;100697.06;5125187;28;20407;-67
2024/03/10 05:27:31;;;;;;;0.50;0.50;;;;;;;-0.72;67.12;100713.38;5125192;28;20491;-68
2024/03/10 05:29:56;;;;;;;0.47;0.47;;;;;;;-0.83;66.92;100688.28;5125140;28;20087;-66
2024/03/10 05:32:22;;;;;;;0.50;0.50;;;;;;;-0.75;67.36;100709.00;5125133;28;20019;-66
2024/03/10 05:34:47;;;;;;;0.50;0.50;;;;;;;-0.76;67.12;100692.84;5125003;28;20370;-66
2024/03/10 05:37:13;;;;;;;0.70;0.70;;;;;;;-0.73;66.95;100701.41;5124961;28;20027;-67
2024/03/10 05:39:39;;;;;;;0.68;0.68;;;;;;;-0.70;66.98;100693.94;5125901;28;20020;-67
2024/03/10 05:42:05;;;;;;;0.50;0.50;;;;;;;-0.54;66.49;100706.50;5129130;28;20135;-67
2024/03/10 05:44:31;;;;;;;0.50;0.50;;;;;;;-0.70;66.82;100687.13;5110487;28;20012;-67
2024/03/10 05:46:57;;;;;;;0.57;0.57;;;;;;;-0.79;67.16;100705.47;5128858;28;20023;-68
2024/03/10 05:49:22;;;;;;;0.98;0.75;;;;;;;-0.73;67.04;100701.41;5129016;28;20019;-67
2024/03/10 05:51:47;;;;;;;0.60;0.60;;;;;;;-0.70;66.98;100704.13;5128886;28;20020;-67
2024/03/10 05:54:13;;;;;;;0.60;0.60;;;;;;;-0.72;67.05;100709.16;5128848;28;20020;-67
2024/03/10 05:56:39;;;;;;;0.50;0.50;;;;;;;-0.70;67.03;100722.84;5128922;28;20027;-67
2024/03/10 05:59:04;;;;;;;0.63;0.63;;;;;;;-0.82;67.49;100723.19;5128789;28;20089;-69
2024/03/10 06:01:29;;;;;;;0.50;0.50;;;;;;;-0.54;66.60;100703.94;5128742;28;20532;-67
2024/03/10 06:03:55;;;;;;;0.50;0.50;;;;;;;-0.48;66.46;100710.13;5128540;28;20027;-67
2024/03/10 06:06:21;;;;;;;0.60;0.60;;;;;;;-0.41;66.17;100709.56;5128774;28;20019;-66
2024/03/10 06:08:47;;;;;;;0.50;0.50;;;;;;;-0.63;66.79;100703.56;5128424;28;20055;-66
2024/03/10 06:11:13;;;;;;;0.50;0.50;;;;;;;-0.76;67.07;100727.66;5110027;28;20019;-68
2024/03/10 06:13:38;;;;;;;0.45;0.45;;;;;;;-0.69;67.34;100694.00;5128624;28;20023;-67
2024/03/10 06:16:05;;;;;;;0.50;0.50;;;;;;;-0.71;67.26;100687.06;5128308;28;20020;-68
2024/03/10 06:18:31;;;;;;;1.10;0.75;;;;;;;-0.55;66.70;100696.25;5128403;28;20019;-65
2024/03/10 06:26:27;;;;;;;0.55;0.55;;;;;;;-0.60;67.09;100701.16;5128305;28;20529;-67
2024/03/10 06:28:52;;;;;;;0.55;0.55;;;;;;;-0.41;66.17;100724.88;5128118;28;20020;-69
2024/03/10 06:31:19;;;;;;;0.50;0.50;;;;;;;-0.59;66.59;100712.22;5128021;28;20031;-68
2024/03/10 06:33:45;;;;;;;0.70;0.70;;;;;;;-0.55;66.69;100711.53;5127972;28;20027;-67
2024/03/10 06:36:11;;;;;;;1.05;0.77;;;;;;;-0.48;66.56;100712.69;5127941;28;20023;-69
2024/03/10 06:38:41;;;;;;;0.63;0.63;;;;;;;-0.53;66.49;100727.78;5128060;28;20023;-69
2024/03/10 06:41:10;;;;;;;0.50;0.50;;;;;;;-0.47;66.14;100714.41;5128010;28;20024;-68
2024/03/10 06:43:37;;;;;;;0.50;0.50;;;;;;;-0.40;66.39;100736.84;5109526;28;20415;-69
2024/03/10 06:46:03;;;;;;;0.55;0.55;;;;;;;-0.37;65.81;100726.75;5127904;28;20064;-69
2024/03/10 06:48:30;;;;;;;0.60;0.60;;;;;;;-0.21;65.30;100712.97;5128211;28;20047;-68
2024/03/10 06:50:56;;;;;;;1.25;0.88;;;;;;;-0.36;65.59;100713.19;5108716;28;20028;-68
2024/03/10 06:53:22;;;;;;;0.50;0.50;;;;;;;-0.20;64.99;100709.59;5127743;28;20313;-69
2024/03/10 06:55:47;;;;;;;0.60;0.60;;;;;;;-0.04;64.49;100705.97;5127802;28;20026;-69
2024/03/10 06:58:12;;;;;;;0.70;0.70;;;;;;;-0.24;65.07;100719.59;5127517;28;20031;-69
2024/03/10 07:00:39;;;;;;;0.70;0.70;;;;;;;-0.26;65.06;100701.69;5109094;28;20019;-68
2024/03/10 07:03:05;;;;;;;0.60;0.60;;;;;;;-0.13;64.65;100710.72;5127764;28;20016;-67
2024/03/10 07:05:30;;;;;;;0.63;0.60;;;;;;;-0.33;65.12;100698.00;5127397;28;20016;-69
2024/03/10 07:07:56;;;;;;;0.50;0.50;;;;;;;-0.35;65.43;100716.63;5127215;28;20074;-69
2024/03/10 07:10:21;;;;;;;1.17;0.95;;;;;;;-0.14;64.79;100698.75;5127289;28;20034;-68
2024/03/10 07:12:47;;;;;;;1.02;0.90;;;;;;;-0.22;65.13;100726.50;5127455;28;20459;-69
2024/03/10 07:15:13;;;;;;;1.13;1.05;;;;;;;-0.36;65.56;100705.53;5127198;28;20016;-69
2024/03/10 07:17:40;;;;;;;0.50;0.50;;;;;;;-0.40;65.81;100696.88;5127195;28;20035;-70
2024/03/10 07:20:07;;;;;;;0.50;0.50;;;;;;;-0.30;66.03;100697.25;5125725;28;20045;-68
2024/03/10 07:22:33;;;;;;;0.65;0.65;;;;;;;0.05;64.58;100730.13;5127313;28;20391;-69
2024/03/10 07:24:59;;;;;;;0.55;0.55;;;;;;;-0.19;65.12;100713.03;5127036;28;20112;-69
2024/03/10 07:27:24;;;;;;;0.50;0.50;;;;;;;-0.19;65.31;100696.00;5127074;28;20031;-69
2024/03/10 07:29:51;;;;;;;0.50;0.50;;;;;;;-0.11;65.09;100698.84;5127035;28;20024;-68
2024/03/10 07:32:19;;;;;;;0.50;0.50;;;;;;;0.01;64.58;100718.03;5126899;28;20016;-68
2024/03/10 07:34:44;;;;;;;0.50;0.50;;;;;;;-0.13;64.96;100706.44;5126961;28;20020;-68
2024/03/10 07:37:10;;;;;;;0.50;0.50;;;;;;;-0.22;64.95;100689.94;5126836;28;20058;-68
2024/03/10 07:39:35;;;;;;;0.60;0.60;;;;;;;-0.06;64.54;100719.47;5108574;28;20100;-67
2024/03/10 07:42:00;;;;;;;0.43;0.43;;;;;;;-0.11;64.99;100698.84;5126699;28;20030;-68
2024/03/10 07:44:28;;;;;;;1.95;1.20;;;;;;;0.01;64.60;100707.81;5126843;28;20042;-69
2024/03/10 07:46:53;;;;;;;0.50;0.50;;;;;;;0.06;64.43;100697.00;5108400;28;20027;-69
2024/03/10 07:49:19;;;;;;;0.50;0.50;;;;;;;-0.04;64.95;100703.41;5125350;28;20023;-70
2024/03/10 07:51:44;;;;;;;0.52;0.52;;;;;;;-0.10;64.88;100692.97;5126497;28;20096;-68
2024/03/10 07:54:10;;;;;;;0.50;0.50;;;;;;;0.06;64.97;100701.22;5126084;28;20031;-69
2024/03/10 07:56:36;;;;;;;0.50;0.50;;;;;;;0.07;64.44;100708.06;5126599;28;20031;-68
2024/03/10 07:59:01;;;;;;;0.50;0.50;;;;;;;0.03;64.58;100717.31;5126379;28;20023;-69
2024/03/10 08:01:27;;;;;;;0.50;0.50;;;;;;;0.16;63.94;100708.41;5107915;28;20131;-69
2024/03/10 08:03:54;;;;;;;0.40;0.40;;;;;;;0.28;63.28;100714.81;5125594;28;20083;-65
2024/03/10 08:06:21;;;;;;;0.50;0.50;;;;;;;0.24;64.06;100688.28;5125953;28;20023;-64
2024/03/10 08:08:47;;;;;;;0.50;0.50;;;;;;;0.23;63.56;100712.97;5126234;28;20035;-65
2024/03/10 08:11:12;;;;;;;0.50;0.50;;;;;;;0.37;63.56;100699.84;5126112;28;20083;-63
2024/03/10 08:13:40;;;;;;;0.70;0.70;;;;;;;0.12;64.02;100693.81;5126094;28;20073;-64
2024/03/10 08:16:06;;;;;;;0.70;0.70;;;;;;;0.27;64.07;100703.75;5125911;28;20024;-64
2024/03/10 08:18:31;;;;;;;0.50;0.50;;;;;;;0.26;64.17;100708.81;5126185;28;20087;-66
2024/03/10 08:20:57;;;;;;;2.17;1.27;;;;;;;0.34;64.13;100707.41;5125784;28;20114;-63
2024/03/10 08:23:22;;;;;;;0.90;0.88;;;;;;;0.28;64.24;100702.94;5126084;28;20092;-64
2024/03/10 08:25:48;;;;;;;0.73;0.70;;;;;;;0.41;63.94;100704.28;5126074;28;20020;-64
2024/03/10 08:28:14;;;;;;;0.50;0.50;;;;;;;0.47;63.58;100703.63;5126072;28;20123;-65
2024/03/10 08:30:39;;;;;;;0.80;0.80;;;;;;;0.33;63.99;100704.00;5125717;28;20019;-64
2024/03/10 08:33:06;;;;;;;0.60;0.60;;;;;;;0.39;64.13;100736.53;5125802;28;20019;-63
2024/03/10 08:35:31;;;;;;;0.65;0.65;;;;;;;0.34;64.29;100702.28;5125518;28;20038;-64
2024/03/10 08:37:57;;;;;;;0.77;0.70;;;;;;;0.34;64.32;100694.63;5125756;28;20023;-63
2024/03/10 08:40:22;;;;;;;0.70;0.70;;;;;;;0.57;63.35;100704.84;5125935;28;20023;-64
2024/03/10 08:42:48;;;;;;;0.60;0.60;;;;;;;0.69;63.07;100702.75;5125745;28;20356;-64
2024/03/10 08:45:13;;;;;;;0.52;0.52;;;;;;;0.54;63.69;100692.84;5125576;28;20463;-64
2024/03/10 08:47:44;;;;;;;0.80;0.80;;;;;;;0.47;63.89;100678.97;5125720;28;20027;-63
2024/03/10 08:50:10;;;;;;;0.50;0.50;;;;;;;0.47;64.19;100678.09;5125588;28;20026;-62
2024/03/10 08:52:37;;;;;;;0.73;0.73;;;;;;;0.52;64.39;100688.47;5125426;28;20019;-63
2024/03/10 08:55:07;;;;;;;0.55;0.55;;;;;;;0.71;63.96;100698.56;5125481;28;20030;-62
2024/03/10 08:57:33;;;;;;;0.68;0.63;;;;;;;0.89;62.79;100728.19;5125595;28;20024;-62
2024/03/10 09:00:02;;;;;;;1.05;0.93;;;;;;;0.70;63.82;100721.50;5125566;28;20019;-64
2024/03/10 09:02:29;;;;;;;0.50;0.50;;;;;;;0.92;62.83;100712.94;5125519;28;20019;-62
2024/03/10 09:04:54;;;;;;;1.02;0.75;;;;;;;0.78;63.54;100701.34;5125562;28;20019;-63
2024/03/10 09:07:20;;;;;;;1.33;0.63;;;;;;;0.88;63.77;100700.84;5124049;28;20050;-64
2024/03/10 09:09:46;;;;;;;0.50;0.50;;;;;;;1.20;62.46;100693.47;5125217;28;20509;-62
2024/03/10 09:12:11;;;;;;;0.68;0.68;;;;;;;1.16;62.82;100696.75;5125291;28;20028;-63
2024/03/10 09:14:37;;;;;;;0.90;0.90;;;;;;;1.20;62.90;100713.91;5127875;28;20108;-64
2024/03/10 09:17:03;;;;;;;0.50;0.50;;;;;;;1.43;62.67;100698.50;5128225;28;20164;-63
2024/03/10 09:19:30;;;;;;;0.57;0.57;;;;;;;1.55;62.58;100694.63;5129585;28;20023;-63
2024/03/10 09:21:55;;;;;;;0.50;0.50;;;;;;;1.79;62.59;100703.94;5110816;28;20043;-64
2024/03/10 09:24:20;;;;;;;0.60;0.60;;;;;;;1.98;61.69;100715.63;5111055;28;20031;-63
2024/03/10 09:26:47;;;;;;;0.77;0.77;;;;;;;2.05;59.86;100709.00;5129306;28;20019;-63
2024/03/10 09:29:14;;;;;;;3.92;1.70;;;;;;;1.84;60.09;100693.00;5110880;28;20028;-62
2024/03/10 09:31:41;;;;;;;0.57;0.57;;;;;;;1.71;61.19;100693.44;5129352;28;20024;-63
2024/03/10 09:34:06;;;;;;;1.23;0.85;;;;;;;1.96;59.97;100707.03;5129196;28;20045;-64
2024/03/10 09:36:32;;;;;;;0.45;0.45;;;;;;;1.87;60.16;100707.56;5128937;28;20024;-63
2024/03/10 09:38:59;;;;;;;0.60;0.60;;;;;;;2.08;59.26;100696.28;5129093;28;20087;-64
2024/03/10 09:41:31;;;;;;;0.60;0.60;;;;;;;1.81;59.79;100728.75;5128986;28;20114;-63
2024/03/10 09:43:57;;;;;;;0.93;0.93;;;;;;;1.89;59.57;100716.19;5129135;28;20019;-63
2024/03/10 09:46:23;;;;;;;0.50;0.50;;;;;;;1.83;59.84;100716.00;5127456;28;20019;-63
2024/03/10 09:48:49;;;;;;;0.60;0.60;;;;;;;1.89;59.96;100715.31;5128973;28;20049;-64
2024/03/10 09:51:16;;;;;;;0.50;0.50;;;;;;;2.07;59.35;100692.00;5128470;28;20471;-65
2024/03/10 09:53:46;;;;;;;0.40;0.40;;;;;;;1.85;59.90;100704.13;5129027;28;20046;-63
2024/03/10 09:56:12;;;;;;;0.93;0.65;;;;;;;1.89;60.49;100695.72;5129235;28;20026;-63
2024/03/10 09:58:47;;;;;;;0.63;0.63;;;;;;;2.07;59.94;100707.34;5129524;28;20015;-63
2024/03/10 10:01:16;;;;;;;0.70;0.70;;;;;;;2.09;59.69;100705.72;5129045;28;20086;-64
2024/03/10 10:03:44;;;;;;;0.93;0.93;;;;;;;2.10;59.68;100700.66;5128607;28;20076;-64
2024/03/10 10:06:13;;;;;;;0.60;0.60;;;;;;;2.47;58.35;100694.91;5128307;28;20031;-63
2024/03/10 10:08:39;;;;;;;0.50;0.50;;;;;;;2.25;58.83;100706.19;5127107;28;20043;-63
2024/03/10 10:11:08;;;;;;;0.60;0.60;;;;;;;2.06;59.55;100697.94;5128423;28;20039;-62
2024/03/10 10:13:33;;;;;;;0.85;0.85;;;;;;;2.02;59.59;100706.34;5126904;28;20433;-63
2024/03/10 10:15:59;;;;;;;0.60;0.60;;;;;;;2.18;59.03;100711.13;5128384;28;20053;-61
2024/03/10 10:18:27;;;;;;;0.60;0.60;;;;;;;2.11;59.14;100696.38;5128258;28;20069;-63
2024/03/10 10:20:53;;;;;;;0.75;0.75;;;;;;;2.08;59.13;100701.41;5126415;28;20024;-62
2024/03/10 10:23:26;;;;;;;0.70;0.70;;;;;;;2.04;59.35;100700.47;5128135;28;20050;-63
2024/03/10 10:26:05;;;;;;;0.95;0.80;;;;;;;1.95;59.40;100706.13;5127303;28;20080;-63
2024/03/10 10:28:32;;;;;;;0.65;0.65;;;;;;;2.04;59.08;100705.56;5128110;28;20054;-63
2024/03/10 10:31:09;;;;;;;2.65;0.95;;;;;;;2.02;59.41;100714.00;5127576;28;20030;-64
2024/03/10 10:33:34;;;;;;;0.50;0.50;;;;;;;2.03;59.79;100713.22;5127744;28;20019;-63
2024/03/10 10:36:05;;;;;;;0.63;0.63;;;;;;;2.21;59.52;100695.84;5127625;28;20399;-60
2024/03/10 10:38:39;;;;;;;0.50;0.50;;;;;;;2.33;59.15;100708.16;5128142;28;20065;-64
2024/03/10 10:41:07;;;;;;;2.25;0.70;;;;;;;2.40;59.20;100700.63;5127921;28;20023;-65
2024/03/10 10:43:37;;;;;;;0.50;0.50;;;;;;;2.66;59.04;100709.13;5128019;28;20030;-63
2024/03/10 10:46:04;;;;;;;0.82;0.60;;;;;;;2.85;58.52;100696.81;5109499;28;20015;-64
2024/03/10 10:48:33;;;;;;;1.58;0.85;;;;;;;2.92;58.02;100700.44;5127915;28;20150;-63
2024/03/10 10:50:59;;;;;;;0.60;0.60;;;;;;;3.00;56.88;100700.63;5127523;28;20023;-64
2024/03/10 10:53:25;;;;;;;0.50;0.50;;;;;;;2.84;57.74;100705.34;5127815;28;20030;-63
2024/03/10 10:55:51;;;;;;;3.30;1.15;;;;;;;2.80;57.79;100698.38;5127537;28;20095;-64
2024/03/10 10:58:18;;;;;;;0.68;0.68;;;;;;;2.83;57.31;100717.28;5127680;28;20027;-62
2024/03/10 11:00:53;;;;;;;1.15;1.05;;;;;;;2.77;57.12;100712.00;5127646;28;20084;-65
2024/03/10 11:03:24;;;;;;;0.50;0.50;;;;;;;2.68;57.46;100715.16;5127571;28;20027;-65
2024/03/10 11:06:02;;;;;;;2.60;1.10;;;;;;;2.93;57.20;100703.03;5127608;28;20012;-65
2024/03/10 11:08:31;;;;;;;0.55;0.55;;;;;;;2.93;56.56;100704.72;5127243;28;20046;-65
2024/03/10 11:10:57;;;;;;;0.52;0.52;;;;;;;2.73;57.44;100716.16;5125705;28;20035;-65
2024/03/10 11:13:23;;;;;;;0.77;0.77;;;;;;;2.78;57.22;100697.47;5127707;28;20138;-63
2024/03/10 11:16:04;;;;;;;0.60;0.60;;;;;;;2.80;57.13;100719.75;5127392;28;20012;-65
2024/03/10 11:18:30;;;;;;;6.70;0.70;;;;;;;2.65;57.18;100701.38;5126972;28;20062;-65
2024/03/10 11:21:13;;;;;;;0.57;0.57;;;;;;;2.65;57.12;100733.00;5108814;28;20034;-64
2024/03/10 11:23:46;;;;;;;0.60;0.60;;;;;;;2.66;57.01;100718.50;5109032;28;20043;-64
2024/03/10 11:26:15;;;;;;;1.42;1.33;;;;;;;2.66;57.01;100704.00;5125933;28;20039;-65
2024/03/10 11:28:56;;;;;;;1.55;0.80;;;;;;;2.58;57.34;100708.91;5127259;28;20030;-65
2024/03/10 11:31:25;;;;;;;0.82;0.68;;;;;;;2.65;56.98;100703.94;5127148;28;20051;-64
2024/03/10 11:33:52;;;;;;;0.63;0.63;;;;;;;2.55;57.28;100703.69;5127250;28;20098;-63
2024/03/10 11:36:20;;;;;;;0.65;0.65;;;;;;;2.46;57.56;100694.00;5126461;28;20039;-65
2024/03/10 11:38:46;;;;;;;0.73;0.73;;;;;;;2.59;57.12;100717.44;5108316;28;20020;-65
2024/03/10 11:41:11;;;;;;;0.65;0.65;;;;;;;2.62;57.44;100726.94;5126668;28;20015;-67
2024/03/10 11:43:38;;;;;;;0.50;0.50;;;;;;;2.96;56.14;100699.69;5108313;28;20106;-70
2024/03/10 11:46:25;;;;;;;0.73;0.57;;;;;;;2.79;56.63;100699.22;5126692;28;20095;-67
2024/03/10 11:48:57;;;;;;;0.80;0.77;;;;;;;2.65;57.03;100709.06;5125010;28;20032;-69
2024/03/10 11:51:27;;;;;;;0.88;0.65;;;;;;;2.75;57.30;100694.84;5126504;28;20054;-68